Time;durP1;ratioP1;P1;durP2;ratioP2;P2;SDS_P1;SDS_P2;PMS_P1;PMS_P2;Temp;Humidity;BMP_temperature;BMP_pressure;BME280_temperature;BME280_humidity;BME280_pressure;Samples;Min_cycle;Max_cycle;Signal;HPM_P1;HPM_P2
2022/10/08 00:00:59;;;;;;;0.40;0.40;;;;;;;14.57;100.00;99975.44;7394718;19;20430;-60
2022/10/08 00:03:27;;;;;;;0.30;0.30;;;;;;;14.81;100.00;99978.63;7390787;19;20021;-60
2022/10/08 00:06:02;;;;;;;0.43;0.43;;;;;;;14.60;100.00;99977.22;7393404;19;20016;-60
2022/10/08 00:08:30;;;;;;;0.30;0.30;;;;;;;14.62;100.00;99976.75;7397461;19;20355;-60
2022/10/08 00:11:03;;;;;;;0.47;0.47;;;;;;;15.04;100.00;99977.47;7391781;19;20019;-60
2022/10/08 00:13:42;;;;;;;0.52;0.52;;;;;;;15.03;100.00;99975.94;7392531;19;20534;-60
2022/10/08 00:16:15;;;;;;;0.85;0.65;;;;;;;15.22;100.00;99973.47;7391721;19;20011;-60
2022/10/08 00:18:45;;;;;;;0.20;0.20;;;;;;;15.26;100.00;99978.81;7392212;19;20462;-60
2022/10/08 00:21:15;;;;;;;0.63;0.20;;;;;;;15.35;100.00;99973.78;7390795;19;20350;-60
2022/10/08 00:23:42;;;;;;;3.73;0.20;;;;;;;15.41;100.00;99973.78;7393233;19;20040;-60
2022/10/08 00:26:10;;;;;;;0.28;0.20;;;;;;;15.47;100.00;99974.59;7395404;19;20007;-60
2022/10/08 00:28:37;;;;;;;3.83;1.20;;;;;;;15.48;100.00;99974.09;7394150;19;20014;-60
2022/10/08 00:31:13;;;;;;;1.75;1.13;;;;;;;15.54;100.00;99976.91;7396296;19;20022;-60
2022/10/08 00:33:40;;;;;;;0.60;0.60;;;;;;;15.67;100.00;99980.00;7389819;19;20504;-60
2022/10/08 00:36:11;;;;;;;0.68;0.68;;;;;;;15.54;100.00;99983.28;7391596;19;20046;-60
2022/10/08 00:38:38;;;;;;;0.10;0.10;;;;;;;15.51;100.00;99981.50;7391418;19;20011;-60
2022/10/08 00:41:07;;;;;;;0.25;0.10;;;;;;;15.70;100.00;99981.81;7390838;19;20015;-60
2022/10/08 00:43:43;;;;;;;0.25;0.25;;;;;;;15.73;100.00;99983.56;7392323;19;20018;-60
2022/10/08 00:46:30;;;;;;;8.30;0.88;;;;;;;15.61;100.00;99984.84;7391659;19;20618;-60
2022/10/08 00:49:00;;;;;;;13.45;0.88;;;;;;;15.59;100.00;99979.72;7391907;19;20030;-60
2022/10/08 00:51:27;;;;;;;0.45;0.45;;;;;;;15.31;100.00;99983.69;7390399;19;20018;-60
2022/10/08 00:53:53;;;;;;;0.20;0.20;;;;;;;15.49;100.00;99974.84;7390829;19;20477;-60
2022/10/08 00:56:21;;;;;;;0.38;0.38;;;;;;;15.54;100.00;99985.31;7392288;19;20011;-60
2022/10/08 00:58:48;;;;;;;1.35;0.63;;;;;;;15.53;100.00;99986.59;7391865;19;20394;-60
2022/10/08 01:01:15;;;;;;;2.92;0.45;;;;;;;15.61;100.00;100001.69;7393333;19;20015;-60
2022/10/08 01:03:41;;;;;;;0.40;0.40;;;;;;;15.49;100.00;100002.91;7391080;19;20029;-60
2022/10/08 01:06:23;;;;;;;0.30;0.30;;;;;;;15.00;100.00;100005.00;7391384;19;20069;-60
2022/10/08 01:08:55;;;;;;;0.20;0.20;;;;;;;14.83;100.00;100009.75;7391131;19;20010;-60
2022/10/08 01:11:52;;;;;;;0.20;0.20;;;;;;;14.72;100.00;100004.06;7390436;19;20007;-60
2022/10/08 01:14:24;;;;;;;6.03;1.38;;;;;;;14.76;100.00;100015.03;7391767;19;20024;-60
2022/10/08 01:17:09;;;;;;;0.95;0.45;;;;;;;14.72;100.00;100006.09;7391983;19;20006;-60
2022/10/08 01:19:54;;;;;;;0.30;0.30;;;;;;;14.74;100.00;100021.16;7391393;19;20017;-60
2022/10/08 01:22:57;;;;;;;0.35;0.35;;;;;;;14.69;100.00;100019.06;7390936;19;20011;-60
2022/10/08 01:25:46;;;;;;;0.13;0.13;;;;;;;14.71;100.00;100010.94;7394179;19;20049;-60
2022/10/08 01:28:21;;;;;;;0.57;0.57;;;;;;;14.72;100.00;100020.91;7394167;19;20026;-60
2022/10/08 01:30:56;;;;;;;1.63;0.50;;;;;;;14.57;100.00;100002.69;7389893;19;20417;-60
2022/10/08 01:33:29;;;;;;;0.47;0.47;;;;;;;14.37;100.00;100000.75;7390500;19;20546;-60
2022/10/08 01:35:58;;;;;;;0.98;0.20;;;;;;;14.30;100.00;100015.22;7390479;19;20014;-60
2022/10/08 01:38:29;;;;;;;0.10;0.10;;;;;;;14.39;100.00;100017.84;7393570;19;20050;-60
2022/10/08 01:40:58;;;;;;;0.50;0.50;;;;;;;14.64;100.00;100016.25;7389118;19;20007;-60
2022/10/08 01:43:27;;;;;;;0.38;0.35;;;;;;;14.52;100.00;100012.59;7391060;19;20015;-60
2022/10/08 01:45:58;;;;;;;1.23;1.02;;;;;;;14.47;100.00;100009.75;7389980;19;20015;-60
2022/10/08 01:48:32;;;;;;;0.20;0.20;;;;;;;14.41;100.00;100009.72;7395474;19;20022;-60
2022/10/08 01:51:16;;;;;;;0.40;0.20;;;;;;;14.29;100.00;100019.31;7392398;19;20759;-60
2022/10/08 01:53:45;;;;;;;0.28;0.28;;;;;;;14.19;100.00;100015.09;7389969;19;20014;-60
2022/10/08 01:56:17;;;;;;;1.55;1.27;;;;;;;14.15;100.00;100022.97;7389112;19;20014;-60
2022/10/08 01:58:54;;;;;;;7.10;0.45;;;;;;;14.25;100.00;100018.72;7387665;19;20351;-60
2022/10/08 02:01:50;;;;;;;0.57;0.40;;;;;;;14.31;100.00;100013.97;7386348;19;20015;-60
2022/10/08 02:04:34;;;;;;;0.20;0.20;;;;;;;14.30;100.00;100018.78;7400724;19;20014;-60
2022/10/08 02:07:09;;;;;;;0.10;0.10;;;;;;;14.35;100.00;100011.69;7405159;19;20037;-60
2022/10/08 02:09:39;;;;;;;0.30;0.20;;;;;;;14.48;100.00;100019.69;7403153;19;20021;-60
2022/10/08 02:12:07;;;;;;;0.95;0.52;;;;;;;14.36;100.00;100013.22;7402762;19;20035;-60
2022/10/08 02:14:36;;;;;;;10.30;0.55;;;;;;;14.28;100.00;100024.09;7403068;19;20018;-60
2022/10/08 02:17:05;;;;;;;0.60;0.60;;;;;;;14.46;100.00;100022.22;7405391;19;20006;-60
2022/10/08 02:19:58;;;;;;;0.63;0.63;;;;;;;14.39;100.00;100018.63;7403937;19;20546;-60
2022/10/08 02:22:31;;;;;;;0.60;0.57;;;;;;;14.65;100.00;100017.78;7402991;19;20010;-60
2022/10/08 02:25:06;;;;;;;4.60;1.10;;;;;;;14.53;100.00;100010.56;7405728;19;20021;-60
2022/10/08 02:27:46;;;;;;;0.30;0.30;;;;;;;14.61;100.00;100015.22;7405301;19;20011;-60
2022/10/08 02:30:12;;;;;;;0.43;0.38;;;;;;;14.79;100.00;100012.00;7401654;19;20978;-60
2022/10/08 02:32:49;;;;;;;0.10;0.10;;;;;;;14.79;100.00;100014.06;7402932;19;20074;-60
2022/10/08 02:35:24;;;;;;;0.30;0.25;;;;;;;14.66;100.00;100008.84;7402557;19;20355;-60
2022/10/08 02:37:58;;;;;;;0.50;0.50;;;;;;;14.21;100.00;100018.16;7406068;19;20010;-60
2022/10/08 02:40:27;;;;;;;0.47;0.47;;;;;;;14.58;100.00;100013.38;7402050;19;20466;-60
2022/10/08 02:43:00;;;;;;;1.15;0.88;;;;;;;14.67;100.00;100016.00;7402677;19;20017;-60
2022/10/08 02:45:32;;;;;;;10.43;0.68;;;;;;;14.78;100.00;100032.91;7402246;19;20074;-60
2022/10/08 02:48:04;;;;;;;0.38;0.38;;;;;;;14.87;100.00;100029.13;7405801;19;20640;-60
2022/10/08 02:50:34;;;;;;;1.20;0.80;;;;;;;15.14;100.00;100032.09;7404394;19;20070;-60
2022/10/08 02:53:01;;;;;;;0.50;0.50;;;;;;;14.65;100.00;100029.75;7402559;19;20485;-60
2022/10/08 02:55:53;;;;;;;0.20;0.20;;;;;;;14.83;100.00;100034.22;7402342;19;20549;-60
2022/10/08 02:58:20;;;;;;;0.75;0.57;;;;;;;15.11;100.00;100037.94;7404977;19;20038;-60
2022/10/08 03:00:53;;;;;;;0.20;0.20;;;;;;;14.85;100.00;100038.06;7401705;19;20010;-60
2022/10/08 03:03:27;;;;;;;0.70;0.70;;;;;;;14.46;100.00;100031.41;7402325;19;20351;-60
2022/10/08 03:05:55;;;;;;;2.13;0.68;;;;;;;13.82;100.00;100045.06;7402380;19;20082;-60
2022/10/08 03:08:22;;;;;;;2.05;0.47;;;;;;;9.31;100.00;100055.38;7404972;19;20400;-60
2022/10/08 03:10:48;;;;;;;0.10;0.10;;;;;;;8.00;100.00;100056.25;7400949;19;20010;-60
2022/10/08 03:13:17;;;;;;;5.57;1.10;;;;;;;7.46;100.00;100065.72;7401389;19;20007;-60
2022/10/08 03:15:44;;;;;;;0.25;0.25;;;;;;;7.64;100.00;100071.41;7395147;19;20029;-60
2022/10/08 03:18:11;;;;;;;0.95;0.55;;;;;;;7.31;100.00;100078.53;7397904;19;20014;-60
2022/10/08 03:20:44;;;;;;;0.20;0.20;;;;;;;7.54;100.00;100083.66;7395856;19;20359;-60
2022/10/08 03:23:14;;;;;;;5.05;1.23;;;;;;;7.25;100.00;100077.56;7393563;19;20050;-60
2022/10/08 03:25:41;;;;;;;0.40;0.40;;;;;;;7.46;100.00;100087.91;7399557;19;20470;-60
2022/10/08 03:28:07;;;;;;;0.93;0.40;;;;;;;7.60;100.00;100090.16;7397266;19;20031;-60
2022/10/08 03:30:33;;;;;;;0.25;0.25;;;;;;;7.52;100.00;100091.66;7394867;19;20028;-60
2022/10/08 03:32:59;;;;;;;1.75;0.40;;;;;;;7.55;100.00;100101.84;7394393;19;20503;-60
2022/10/08 03:35:26;;;;;;;2.30;1.65;;;;;;;7.62;100.00;100112.66;7395204;19;20038;-60
2022/10/08 03:37:52;;;;;;;4.25;0.85;;;;;;;7.58;100.00;100112.00;7396020;19;20090;-60
2022/10/08 03:40:20;;;;;;;0.70;0.40;;;;;;;7.72;100.00;100121.06;7392989;19;20007;-60
2022/10/08 03:42:46;;;;;;;0.55;0.40;;;;;;;7.77;100.00;100120.50;7394459;19;20011;-60
2022/10/08 03:45:13;;;;;;;0.57;0.52;;;;;;;7.82;100.00;100128.25;7393145;19;20018;-60
2022/10/08 03:47:39;;;;;;;0.15;0.15;;;;;;;7.81;100.00;100133.00;7395778;19;20022;-60
2022/10/08 03:50:05;;;;;;;12.35;0.63;;;;;;;7.90;100.00;100138.63;7395261;19;20003;-60
2022/10/08 03:52:31;;;;;;;0.68;0.68;;;;;;;8.06;100.00;100129.31;7392503;19;20046;-60
2022/10/08 03:54:57;;;;;;;2.05;0.65;;;;;;;8.21;100.00;100141.44;7393459;19;20031;-60
2022/10/08 03:57:24;;;;;;;1.10;0.20;;;;;;;8.30;100.00;100138.75;7394959;19;20018;-60
2022/10/08 03:59:50;;;;;;;10.95;0.68;;;;;;;8.40;100.00;100138.38;7393187;19;20029;-60
2022/10/08 04:02:16;;;;;;;0.45;0.20;;;;;;;8.01;100.00;100143.78;7391985;19;20007;-60
2022/10/08 04:04:42;;;;;;;0.40;0.25;;;;;;;7.64;100.00;100143.47;7392606;19;20010;-60
2022/10/08 04:07:08;;;;;;;0.60;0.60;;;;;;;7.58;100.00;100148.03;7392852;19;20011;-60
2022/10/08 04:09:34;;;;;;;0.35;0.35;;;;;;;7.56;100.00;100155.25;7392864;19;20015;-60
2022/10/08 04:12:00;;;;;;;5.15;0.85;;;;;;;7.54;100.00;100152.94;7391087;19;20014;-60
2022/10/08 04:14:26;;;;;;;10.98;0.68;;;;;;;7.45;100.00;100155.59;7392988;19;20018;-60
2022/10/08 04:16:54;;;;;;;6.07;0.77;;;;;;;7.41;100.00;100166.03;7392996;19;20078;-60
2022/10/08 04:19:20;;;;;;;0.38;0.38;;;;;;;7.35;100.00;100161.50;7393316;19;20024;-60
2022/10/08 04:21:46;;;;;;;0.85;0.40;;;;;;;7.57;100.00;100154.03;7389887;19;20070;-60
2022/10/08 04:24:12;;;;;;;0.25;0.25;;;;;;;7.69;100.00;100155.97;7394548;19;20010;-60
2022/10/08 04:26:38;;;;;;;2.40;0.20;;;;;;;7.82;100.00;100165.03;7392052;19;20007;-60
2022/10/08 04:29:05;;;;;;;0.35;0.35;;;;;;;7.90;100.00;100162.81;7391308;19;20488;-60
2022/10/08 04:31:31;;;;;;;0.30;0.25;;;;;;;8.07;100.00;100169.72;7392127;19;20463;-60
2022/10/08 04:33:57;;;;;;;2.85;0.75;;;;;;;8.96;100.00;100168.75;7392497;19;20082;-60
2022/10/08 04:36:24;;;;;;;0.28;0.28;;;;;;;8.50;100.00;100168.94;7393025;19;20018;-60
2022/10/08 04:38:50;;;;;;;0.50;0.50;;;;;;;8.41;100.00;100172.44;7391100;19;20010;-60
2022/10/08 04:41:25;;;;;;;2.05;0.75;;;;;;;8.51;100.00;100171.25;7388674;19;20010;-60
2022/10/08 04:43:52;;;;;;;0.10;0.10;;;;;;;12.63;100.00;100160.59;7391700;19;20018;-60
2022/10/08 04:46:21;;;;;;;0.93;0.20;;;;;;;13.68;100.00;100153.03;7390087;19;20018;-60
2022/10/08 04:48:51;;;;;;;0.82;0.63;;;;;;;14.56;100.00;100163.69;7390725;19;20010;-60
2022/10/08 04:51:18;;;;;;;0.20;0.20;;;;;;;14.77;100.00;100171.53;7393447;19;20006;-60
2022/10/08 04:53:45;;;;;;;0.50;0.50;;;;;;;15.05;100.00;100169.72;7388809;19;20006;-60
2022/10/08 04:56:20;;;;;;;5.22;0.57;;;;;;;15.03;100.00;100175.06;7389478;19;20466;-60
2022/10/08 04:58:46;;;;;;;0.85;0.85;;;;;;;15.08;100.00;100184.78;7389465;19;20359;-60
2022/10/08 05:01:15;;;;;;;0.10;0.10;;;;;;;14.89;100.00;100192.81;7389232;19;20019;-60
2022/10/08 05:03:44;;;;;;;7.28;0.55;;;;;;;14.91;100.00;100198.69;7391472;19;20010;-60
2022/10/08 05:06:13;;;;;;;0.90;0.55;;;;;;;15.15;100.00;100201.97;7390779;19;20007;-60
2022/10/08 05:08:39;;;;;;;11.60;0.57;;;;;;;15.18;100.00;100206.56;7388837;19;20360;-60
2022/10/08 05:11:06;;;;;;;0.52;0.40;;;;;;;15.11;100.00;100209.06;7391291;19;20011;-60
2022/10/08 05:13:32;;;;;;;2.15;0.50;;;;;;;15.29;100.00;100210.72;7389608;19;20022;-60
2022/10/08 05:16:17;;;;;;;0.22;0.22;;;;;;;15.35;100.00;100206.69;7391185;19;20018;-60
2022/10/08 05:18:43;;;;;;;1.75;0.32;;;;;;;15.48;100.00;100209.09;7391441;19;20028;-61
2022/10/08 05:21:15;;;;;;;2.63;0.70;;;;;;;15.60;100.00;100210.69;7391818;19;20011;-60
2022/10/08 05:23:41;;;;;;;1.40;0.40;;;;;;;14.88;100.00;100213.69;7391035;19;20015;-61
2022/10/08 05:26:23;;;;;;;2.67;1.15;;;;;;;15.01;100.00;100216.09;7394886;19;20014;-60
2022/10/08 05:28:54;;;;;;;7.50;0.35;;;;;;;15.09;100.00;100222.81;7390851;19;20030;-61
2022/10/08 05:31:22;;;;;;;2.95;0.30;;;;;;;15.15;100.00;100224.41;7390829;19;20010;-60
2022/10/08 05:33:49;;;;;;;0.10;0.10;;;;;;;15.12;100.00;100224.59;7389933;19;20038;-61
2022/10/08 05:36:18;;;;;;;0.40;0.40;;;;;;;15.32;100.00;100232.16;7391353;19;20018;-61
2022/10/08 05:38:44;;;;;;;2.33;0.55;;;;;;;15.32;100.00;100237.78;7389086;19;20447;-60
2022/10/08 05:41:18;;;;;;;0.55;0.47;;;;;;;15.34;100.00;100238.03;7389013;19;20006;-60
2022/10/08 05:43:46;;;;;;;5.07;0.45;;;;;;;15.36;100.00;100236.28;7389453;19;20086;-60
2022/10/08 05:46:12;;;;;;;0.30;0.30;;;;;;;15.44;100.00;100245.06;7387250;19;20472;-60
2022/10/08 05:48:39;;;;;;;0.75;0.20;;;;;;;15.19;100.00;100244.56;7388316;19;20384;-60
2022/10/08 05:51:12;;;;;;;0.63;0.52;;;;;;;15.13;100.00;100252.19;7393191;19;20010;-60
2022/10/08 05:53:41;;;;;;;0.73;0.55;;;;;;;15.19;100.00;100258.59;7390405;19;20018;-60
2022/10/08 05:56:10;;;;;;;0.80;0.40;;;;;;;14.95;100.00;100266.56;7390704;19;20018;-60
2022/10/08 05:58:38;;;;;;;0.20;0.10;;;;;;;14.91;100.00;100265.22;7389281;19;20035;-60
2022/10/08 06:01:07;;;;;;;0.30;0.30;;;;;;;14.86;100.00;100269.50;7389461;19;20010;-60
2022/10/08 06:03:33;;;;;;;3.00;0.50;;;;;;;14.58;100.00;100268.44;7389439;19;20014;-60
2022/10/08 06:06:05;;;;;;;8.07;0.88;;;;;;;14.34;100.00;100279.13;7389784;19;20026;-61
2022/10/08 06:08:33;;;;;;;0.40;0.20;;;;;;;14.53;100.00;100280.38;7394974;19;20019;-60
2022/10/08 06:10:59;;;;;;;0.60;0.57;;;;;;;14.60;100.00;100284.78;7389955;19;20070;-61
2022/10/08 06:13:25;;;;;;;1.30;0.40;;;;;;;14.50;100.00;100281.38;7390055;19;20006;-60
2022/10/08 06:16:03;;;;;;;2.38;1.17;;;;;;;14.74;100.00;100284.69;7388487;19;20019;-61
2022/10/08 06:18:31;;;;;;;7.53;0.40;;;;;;;14.79;100.00;100286.03;7393667;19;20026;-61
2022/10/08 06:21:13;;;;;;;0.30;0.30;;;;;;;14.69;100.00;100290.22;7389302;19;20031;-61
2022/10/08 06:23:45;;;;;;;0.50;0.50;;;;;;;14.66;100.00;100289.19;7389178;19;20006;-61
2022/10/08 06:26:11;;;;;;;0.73;0.20;;;;;;;14.64;100.00;100300.13;7393603;19;20042;-61
2022/10/08 06:28:38;;;;;;;3.20;1.38;;;;;;;14.65;100.00;100298.09;7388354;19;20011;-61
2022/10/08 06:31:05;;;;;;;2.38;1.67;;;;;;;14.70;100.00;100300.97;7389292;19;20010;-61
2022/10/08 06:33:32;;;;;;;2.42;0.65;;;;;;;14.57;100.00;100300.56;7388523;19;20011;-61
2022/10/08 06:36:03;;;;;;;1.63;0.65;;;;;;;14.76;100.00;100304.59;7388684;19;20025;-61
2022/10/08 06:38:29;;;;;;;2.40;0.73;;;;;;;14.71;100.00;100313.72;7393116;19;20038;-61
2022/10/08 06:40:57;;;;;;;3.25;0.60;;;;;;;14.63;100.00;100329.44;7387180;19;20488;-61
2022/10/08 06:43:23;;;;;;;0.68;0.43;;;;;;;14.47;100.00;100315.22;7387899;19;20011;-61
2022/10/08 06:45:49;;;;;;;7.85;0.65;;;;;;;14.44;100.00;100322.56;7387446;19;20042;-61
2022/10/08 06:48:15;;;;;;;2.03;0.68;;;;;;;14.22;100.00;100322.25;7393273;19;20018;-61
2022/10/08 06:50:41;;;;;;;0.70;0.70;;;;;;;14.29;100.00;100333.06;7397868;19;20360;-61
2022/10/08 06:53:09;;;;;;;14.38;1.23;;;;;;;14.44;100.00;100328.19;7394146;19;20080;-60
2022/10/08 06:55:35;;;;;;;0.38;0.38;;;;;;;14.58;100.00;100329.34;7394894;19;20011;-61
2022/10/08 06:58:04;;;;;;;0.50;0.20;;;;;;;14.53;100.00;100319.59;7398391;19;20036;-61
2022/10/08 07:00:30;;;;;;;0.52;0.30;;;;;;;14.42;100.00;100322.28;7395049;19;20015;-61
2022/10/08 07:02:56;;;;;;;0.80;0.47;;;;;;;14.37;100.00;100329.38;7393706;19;20022;-61
2022/10/08 07:05:23;;;;;;;0.10;0.10;;;;;;;14.38;100.00;100335.72;7393650;19;20041;-61
2022/10/08 07:07:49;;;;;;;0.50;0.50;;;;;;;14.48;100.00;100339.94;7397530;19;20015;-61
2022/10/08 07:10:15;;;;;;;0.63;0.63;;;;;;;14.55;100.00;100339.53;7394846;19;20018;-61
2022/10/08 07:12:41;;;;;;;0.90;0.50;;;;;;;14.65;100.00;100349.31;7395336;19;20482;-61
2022/10/08 07:15:08;;;;;;;0.45;0.35;;;;;;;14.85;100.00;100349.31;7393844;19;20015;-61
2022/10/08 07:17:35;;;;;;;2.58;1.23;;;;;;;15.01;100.00;100347.94;7396990;19;20074;-60
2022/10/08 07:20:01;;;;;;;1.27;0.32;;;;;;;15.12;100.00;100348.81;7398529;19;20363;-61
2022/10/08 07:22:27;;;;;;;1.20;0.85;;;;;;;15.15;100.00;100363.91;7393958;19;20021;-60
2022/10/08 07:24:53;;;;;;;1.70;0.57;;;;;;;15.12;100.00;100362.84;7395078;19;20044;-61
2022/10/08 07:27:20;;;;;;;1.35;0.93;;;;;;;15.33;100.00;100371.22;7396498;19;20015;-62
2022/10/08 07:29:46;;;;;;;0.15;0.15;;;;;;;15.35;100.00;100365.88;7394960;19;20028;-60
2022/10/08 07:32:12;;;;;;;7.43;1.00;;;;;;;15.25;100.00;100375.72;7392944;19;20015;-60
2022/10/08 07:34:38;;;;;;;1.88;0.10;;;;;;;15.42;100.00;100380.22;7393697;19;20359;-60
2022/10/08 07:37:04;;;;;;;2.75;0.80;;;;;;;15.42;100.00;100376.69;7395068;19;20015;-62
2022/10/08 07:39:30;;;;;;;0.25;0.25;;;;;;;15.58;100.00;100378.88;7393369;19;20010;-60
2022/10/08 07:41:56;;;;;;;0.50;0.45;;;;;;;15.38;100.00;100381.72;7388304;19;20038;-60
2022/10/08 07:44:23;;;;;;;0.52;0.40;;;;;;;15.30;100.00;100375.78;7393150;19;20014;-62
2022/10/08 07:46:50;;;;;;;2.65;0.82;;;;;;;15.24;100.00;100382.59;7395176;19;20436;-60
2022/10/08 07:49:18;;;;;;;5.82;1.40;;;;;;;15.36;100.00;100381.44;7393748;19;20011;-60
2022/10/08 07:51:44;;;;;;;1.38;0.80;;;;;;;15.46;100.00;100377.25;7392600;19;20004;-60
2022/10/08 07:54:17;;;;;;;1.08;0.50;;;;;;;15.55;100.00;100386.25;7396651;19;20044;-60
2022/10/08 07:56:43;;;;;;;0.40;0.28;;;;;;;15.66;100.00;100391.19;7392622;19;20036;-60
2022/10/08 07:59:13;;;;;;;5.50;1.35;;;;;;;15.68;100.00;100399.91;7388762;19;20069;-61
2022/10/08 08:01:40;;;;;;;0.35;0.32;;;;;;;15.69;100.00;100399.41;7386706;19;20474;-60
2022/10/08 08:04:08;;;;;;;0.70;0.40;;;;;;;15.74;100.00;100403.53;7389188;19;20014;-60
2022/10/08 08:06:40;;;;;;;1.85;0.35;;;;;;;15.54;100.00;100406.41;7389665;19;20462;-60
2022/10/08 08:09:07;;;;;;;0.73;0.52;;;;;;;15.30;100.00;100417.09;7390318;19;20423;-61
2022/10/08 08:11:33;;;;;;;1.23;1.15;;;;;;;15.38;100.00;100416.16;7391923;19;20018;-60
2022/10/08 08:13:59;;;;;;;0.30;0.13;;;;;;;15.31;100.00;100427.06;7391940;19;20010;-60
2022/10/08 08:16:28;;;;;;;4.97;0.85;;;;;;;15.49;100.00;100432.38;7392303;19;20021;-62
2022/10/08 08:18:57;;;;;;;0.38;0.38;;;;;;;15.50;100.00;100428.31;7392241;19;20015;-61
2022/10/08 08:21:29;;;;;;;0.20;0.15;;;;;;;15.61;100.00;100428.44;7394597;19;20022;-60
2022/10/08 08:23:57;;;;;;;0.10;0.10;;;;;;;15.66;100.00;100430.50;7392117;19;20010;-60
2022/10/08 08:26:31;;;;;;;1.38;0.63;;;;;;;15.76;100.00;100429.84;7393174;19;20007;-60
2022/10/08 08:29:00;;;;;;;0.20;0.20;;;;;;;15.82;100.00;100444.72;7390023;19;20011;-60
2022/10/08 08:31:32;;;;;;;0.20;0.20;;;;;;;15.85;100.00;100442.94;7392341;19;20010;-62
2022/10/08 08:34:05;;;;;;;0.55;0.40;;;;;;;15.85;100.00;100451.38;7392790;19;20019;-60
2022/10/08 08:36:37;;;;;;;0.32;0.30;;;;;;;16.05;100.00;100456.88;7392271;19;20010;-60
2022/10/08 08:39:05;;;;;;;2.85;0.38;;;;;;;16.08;100.00;100450.28;7389744;19;20011;-60
2022/10/08 08:41:47;;;;;;;3.75;0.43;;;;;;;16.18;100.00;100446.00;7391160;19;20026;-60
2022/10/08 08:44:28;;;;;;;0.38;0.30;;;;;;;16.40;100.00;100454.59;7392245;19;20018;-60
2022/10/08 08:47:10;;;;;;;0.68;0.68;;;;;;;16.28;100.00;100469.84;7392014;19;20082;-60
2022/10/08 08:49:42;;;;;;;0.20;0.20;;;;;;;16.20;100.00;100462.38;7392011;19;20021;-60
2022/10/08 08:52:12;;;;;;;0.85;0.43;;;;;;;15.96;100.00;100465.50;7391812;19;20018;-60
2022/10/08 08:54:39;;;;;;;0.38;0.38;;;;;;;16.04;100.00;100472.22;7390623;19;20074;-60
2022/10/08 08:57:29;;;;;;;4.40;0.57;;;;;;;16.10;100.00;100480.69;7392435;19;20026;-60
2022/10/08 09:00:18;;;;;;;6.23;0.50;;;;;;;16.50;100.00;100486.91;7392093;19;20014;-60
2022/10/08 09:02:56;;;;;;;6.38;0.88;;;;;;;16.51;100.00;100487.66;7390213;19;20231;-60
2022/10/08 09:05:25;;;;;;;0.93;0.50;;;;;;;16.54;100.00;100489.50;7391525;19;20367;-60
2022/10/08 09:08:04;;;;;;;3.92;0.45;;;;;;;16.79;100.00;100501.91;7394043;19;20017;-60
2022/10/08 09:10:46;;;;;;;2.92;1.02;;;;;;;17.06;100.00;100492.84;7391230;19;20015;-60
2022/10/08 09:13:17;;;;;;;0.77;0.40;;;;;;;17.46;100.00;100489.66;7389938;19;20014;-60
2022/10/08 09:15:45;;;;;;;10.93;0.70;;;;;;;17.47;100.00;100494.03;7391608;19;20039;-60
2022/10/08 09:18:14;;;;;;;0.20;0.20;;;;;;;17.63;100.00;100503.84;7395184;19;20444;-60
2022/10/08 09:20:40;;;;;;;0.30;0.10;;;;;;;17.94;100.00;100509.25;7392911;19;20007;-60
2022/10/08 09:23:14;;;;;;;0.85;0.73;;;;;;;17.91;100.00;100510.28;7389425;19;20010;-60
2022/10/08 09:25:43;;;;;;;1.08;0.82;;;;;;;17.85;100.00;100506.66;7394754;19;20685;-60
2022/10/08 09:28:09;;;;;;;0.45;0.35;;;;;;;17.75;100.00;100503.34;7394336;19;20396;-60
2022/10/08 09:30:38;;;;;;;1.40;0.43;;;;;;;17.67;100.00;100513.53;7391147;19;20482;-60
2022/10/08 09:33:07;;;;;;;3.92;0.70;;;;;;;17.52;100.00;100510.19;7390674;19;20026;-60
2022/10/08 09:35:39;;;;;;;1.40;0.38;;;;;;;17.65;100.00;100504.84;7390649;19;20022;-60
2022/10/08 09:38:14;;;;;;;6.60;0.85;;;;;;;17.98;100.00;100504.91;7393214;19;20014;-60
2022/10/08 09:41:15;;;;;;;2.38;0.55;;;;;;;18.07;100.00;100499.03;7386662;19;20025;-60
2022/10/08 09:43:43;;;;;;;0.38;0.38;;;;;;;18.03;100.00;100504.16;7390859;19;20461;-60
2022/10/08 09:46:31;;;;;;;5.72;0.82;;;;;;;18.21;100.00;100499.28;7389621;19;20015;-61
2022/10/08 09:49:17;;;;;;;0.20;0.10;;;;;;;18.07;100.00;100501.84;7390465;19;20090;-60
2022/10/08 09:51:43;;;;;;;0.50;0.50;;;;;;;18.08;100.00;100502.63;7389075;19;20006;-60
2022/10/08 09:54:16;;;;;;;0.88;0.65;;;;;;;17.99;100.00;100500.81;7390302;19;20542;-60
2022/10/08 09:56:52;;;;;;;6.32;1.33;;;;;;;17.96;100.00;100507.47;7390979;19;20498;-60
2022/10/08 09:59:21;;;;;;;0.30;0.15;;;;;;;17.97;100.00;100519.50;7390041;19;20034;-60
2022/10/08 10:01:48;;;;;;;0.30;0.15;;;;;;;17.63;100.00;100513.03;7388065;19;20098;-60
2022/10/08 10:04:29;;;;;;;11.88;0.70;;;;;;;17.64;100.00;100514.59;7389137;19;20011;-60
2022/10/08 10:06:55;;;;;;;0.20;0.17;;;;;;;17.79;100.00;100511.53;7390856;19;20037;-60
2022/10/08 10:09:29;;;;;;;0.45;0.30;;;;;;;17.81;100.00;100521.03;7389136;19;20032;-60
2022/10/08 10:12:01;;;;;;;1.75;1.13;;;;;;;17.85;100.00;100510.25;7390473;19;20007;-60
2022/10/08 10:14:56;;;;;;;2.28;0.63;;;;;;;17.77;100.00;100506.41;7389628;19;20367;-60
2022/10/08 10:17:35;;;;;;;1.65;0.68;;;;;;;17.82;100.00;100514.09;7389810;19;20018;-60
2022/10/08 10:20:34;;;;;;;1.85;0.32;;;;;;;17.96;100.00;100518.75;7390779;19;20506;-59
2022/10/08 10:23:17;;;;;;;0.30;0.25;;;;;;;17.91;100.00;100516.66;7388268;19;20010;-59
2022/10/08 10:26:06;;;;;;;0.47;0.47;;;;;;;17.97;100.00;100520.28;7401111;19;20007;-59
2022/10/08 10:28:40;;;;;;;1.83;0.57;;;;;;;18.28;100.00;100524.16;7401207;19;20011;-59
2022/10/08 10:31:12;;;;;;;2.50;0.75;;;;;;;18.51;100.00;100522.88;7397020;19;20099;-60
2022/10/08 10:33:50;;;;;;;2.13;0.77;;;;;;;18.35;100.00;100537.72;7397020;19;20031;-60
2022/10/08 10:36:17;;;;;;;4.65;1.40;;;;;;;18.08;100.00;100531.56;7396427;19;20485;-59
2022/10/08 10:39:20;;;;;;;4.40;1.27;;;;;;;18.05;100.00;100526.19;7393603;19;20017;-60
2022/10/08 10:42:11;;;;;;;1.70;0.75;;;;;;;18.16;100.00;100524.16;7395359;19;20018;-59
2022/10/08 10:45:01;;;;;;;2.78;0.52;;;;;;;18.07;100.00;100524.38;7394773;19;20511;-60
2022/10/08 10:47:31;;;;;;;0.45;0.45;;;;;;;18.45;100.00;100524.94;7399062;19;20407;-59
2022/10/08 10:50:00;;;;;;;0.38;0.38;;;;;;;18.68;100.00;100524.41;7398055;19;20022;-60
2022/10/08 10:53:17;;;;;;;1.95;0.63;;;;;;;18.99;100.00;100526.13;7394093;19;20015;-60
2022/10/08 10:56:17;;;;;;;4.68;0.52;;;;;;;18.98;100.00;100527.41;7393468;19;20006;-60
2022/10/08 10:58:55;;;;;;;3.13;0.95;;;;;;;18.83;100.00;100541.03;7391723;19;20035;-59
2022/10/08 11:01:43;;;;;;;0.43;0.43;;;;;;;18.92;100.00;100537.94;7392872;19;20010;-60
2022/10/08 11:04:30;;;;;;;1.60;0.88;;;;;;;19.46;100.00;100533.44;7395198;19;20030;-60
2022/10/08 11:07:04;;;;;;;0.10;0.10;;;;;;;19.64;100.00;100543.38;7397491;19;20006;-60
2022/10/08 11:09:43;;;;;;;6.53;0.40;;;;;;;19.52;100.00;100553.94;7394612;19;20011;-59
2022/10/08 11:12:27;;;;;;;2.05;0.52;;;;;;;19.45;100.00;100539.56;7395419;19;20588;-59
2022/10/08 11:14:59;;;;;;;8.40;0.57;;;;;;;19.54;100.00;100540.06;7393359;19;20458;-59
2022/10/08 11:17:40;;;;;;;0.68;0.38;;;;;;;19.60;100.00;100537.97;7397199;19;20041;-60
2022/10/08 11:20:15;;;;;;;6.13;1.55;;;;;;;19.68;100.00;100538.19;7396586;19;20436;-60
2022/10/08 11:23:00;;;;;;;6.80;0.75;;;;;;;19.84;100.00;100533.75;7393386;19;20455;-60
2022/10/08 11:25:45;;;;;;;4.13;0.40;;;;;;;19.84;100.00;100548.63;7398349;19;20007;-60
2022/10/08 11:28:35;;;;;;;0.30;0.10;;;;;;;19.90;100.00;100537.31;7392990;19;20418;-60
2022/10/08 11:31:17;;;;;;;1.25;0.52;;;;;;;19.88;100.00;100542.72;7395383;19;20026;-60
2022/10/08 11:33:44;;;;;;;0.10;0.00;;;;;;;19.88;100.00;100539.88;7395080;19;20074;-60
2022/10/08 11:36:28;;;;;;;14.25;0.35;;;;;;;19.80;100.00;100536.06;7392490;19;20078;-60
2022/10/08 11:39:12;;;;;;;2.10;0.73;;;;;;;19.06;100.00;100545.34;7392483;19;20023;-60
2022/10/08 11:42:15;;;;;;;0.40;0.32;;;;;;;19.33;100.00;100544.50;7392813;19;20006;-60